sensor_id;sensor_type;location;lat;lon;timestamp;pressure;altitude;pressure_sealevel;temperature
72054;BMP280;59918;51.280;7.950;2023-07-20T00:00:07;97775.53;;;16.37
72054;BMP280;59918;51.280;7.950;2023-07-20T00:02:35;97780.91;;;16.30
72054;BMP280;59918;51.280;7.950;2023-07-20T00:05:01;97784.63;;;16.18
72054;BMP280;59918;51.280;7.950;2023-07-20T00:07:26;97783.41;;;16.09
72054;BMP280;59918;51.280;7.950;2023-07-20T00:09:51;97792.41;;;16.02
72054;BMP280;59918;51.280;7.950;2023-07-20T00:12:16;97784.78;;;15.95
72054;BMP280;59918;51.280;7.950;2023-07-20T00:14:42;97778.19;;;15.88
72054;BMP280;59918;51.280;7.950;2023-07-20T00:17:07;97781.56;;;15.88
72054;BMP280;59918;51.280;7.950;2023-07-20T00:19:38;97781.03;;;15.86
72054;BMP280;59918;51.280;7.950;2023-07-20T00:22:06;97783.28;;;15.83
72054;BMP280;59918;51.280;7.950;2023-07-20T00:24:31;97780.25;;;15.86
72054;BMP280;59918;51.280;7.950;2023-07-20T00:27:00;97778.50;;;15.91
72054;BMP280;59918;51.280;7.950;2023-07-20T00:29:25;97775.66;;;15.93
72054;BMP280;59918;51.280;7.950;2023-07-20T00:31:50;97784.22;;;15.93
72054;BMP280;59918;51.280;7.950;2023-07-20T00:34:15;97784.50;;;15.92
72054;BMP280;59918;51.280;7.950;2023-07-20T00:36:43;97780.31;;;15.91
72054;BMP280;59918;51.280;7.950;2023-07-20T00:39:11;97785.72;;;15.89
72054;BMP280;59918;51.280;7.950;2023-07-20T00:41:36;97781.88;;;15.92
72054;BMP280;59918;51.280;7.950;2023-07-20T00:44:02;97780.63;;;15.94
72054;BMP280;59918;51.280;7.950;2023-07-20T00:46:27;97774.16;;;15.97
72054;BMP280;59918;51.280;7.950;2023-07-20T00:48:53;97770.81;;;15.96
72054;BMP280;59918;51.280;7.950;2023-07-20T00:51:19;97771.56;;;15.97
72054;BMP280;59918;51.280;7.950;2023-07-20T00:53:48;97775.81;;;16.03
72054;BMP280;59918;51.280;7.950;2023-07-20T00:56:15;97770.06;;;16.01
72054;BMP280;59918;51.280;7.950;2023-07-20T00:58:40;97776.31;;;16.00
72054;BMP280;59918;51.280;7.950;2023-07-20T01:01:05;97781.50;;;16.00
72054;BMP280;59918;51.280;7.950;2023-07-20T01:03:31;97767.97;;;15.98
72054;BMP280;59918;51.280;7.950;2023-07-20T01:06:26;97778.25;;;15.93
72054;BMP280;59918;51.280;7.950;2023-07-20T01:09:13;97777.72;;;15.91
72054;BMP280;59918;51.280;7.950;2023-07-20T01:11:54;97769.78;;;15.81
72054;BMP280;59918;51.280;7.950;2023-07-20T01:14:25;97779.69;;;15.68
72054;BMP280;59918;51.280;7.950;2023-07-20T01:16:51;97779.75;;;15.56
72054;BMP280;59918;51.280;7.950;2023-07-20T01:19:16;97778.34;;;15.49
72054;BMP280;59918;51.280;7.950;2023-07-20T01:27:33;97789.50;;;15.49
72054;BMP280;59918;51.280;7.950;2023-07-20T01:32:49;97781.34;;;15.57
72054;BMP280;59918;51.280;7.950;2023-07-20T01:35:16;97776.75;;;15.64
72054;BMP280;59918;51.280;7.950;2023-07-20T01:37:48;97774.81;;;15.71
72054;BMP280;59918;51.280;7.950;2023-07-20T01:40:14;97776.94;;;15.74
72054;BMP280;59918;51.280;7.950;2023-07-20T01:42:43;97775.91;;;15.75
72054;BMP280;59918;51.280;7.950;2023-07-20T01:45:12;97772.53;;;15.74
72054;BMP280;59918;51.280;7.950;2023-07-20T01:47:37;97780.56;;;15.73
72054;BMP280;59918;51.280;7.950;2023-07-20T01:50:02;97776.94;;;15.74
72054;BMP280;59918;51.280;7.950;2023-07-20T01:52:27;97778.50;;;15.75
72054;BMP280;59918;51.280;7.950;2023-07-20T01:54:53;97773.31;;;15.75
72054;BMP280;59918;51.280;7.950;2023-07-20T01:57:18;97767.59;;;15.73
72054;BMP280;59918;51.280;7.950;2023-07-20T01:59:43;97771.19;;;15.72
72054;BMP280;59918;51.280;7.950;2023-07-20T02:02:14;97768.13;;;15.75
72054;BMP280;59918;51.280;7.950;2023-07-20T02:04:39;97765.53;;;15.75
72054;BMP280;59918;51.280;7.950;2023-07-20T02:07:05;97766.09;;;15.77
72054;BMP280;59918;51.280;7.950;2023-07-20T02:09:30;97762.19;;;15.74
72054;BMP280;59918;51.280;7.950;2023-07-20T02:11:55;97760.22;;;15.65
72054;BMP280;59918;51.280;7.950;2023-07-20T02:14:24;97754.09;;;15.55
72054;BMP280;59918;51.280;7.950;2023-07-20T02:16:49;97757.22;;;15.40
72054;BMP280;59918;51.280;7.950;2023-07-20T02:19:14;97762.00;;;15.32
72054;BMP280;59918;51.280;7.950;2023-07-20T02:21:47;97760.56;;;15.25
72054;BMP280;59918;51.280;7.950;2023-07-20T02:24:12;97763.53;;;15.17
72054;BMP280;59918;51.280;7.950;2023-07-20T02:26:38;97761.06;;;15.10
72054;BMP280;59918;51.280;7.950;2023-07-20T02:29:03;97763.31;;;15.07
72054;BMP280;59918;51.280;7.950;2023-07-20T02:31:28;97762.22;;;15.03
72054;BMP280;59918;51.280;7.950;2023-07-20T02:33:53;97768.72;;;15.05
72054;BMP280;59918;51.280;7.950;2023-07-20T02:36:19;97762.31;;;15.08
72054;BMP280;59918;51.280;7.950;2023-07-20T02:38:47;97761.44;;;15.14
72054;BMP280;59918;51.280;7.950;2023-07-20T02:41:13;97757.56;;;15.16
72054;BMP280;59918;51.280;7.950;2023-07-20T02:43:38;97752.72;;;15.20
72054;BMP280;59918;51.280;7.950;2023-07-20T02:46:04;97757.69;;;15.21
72054;BMP280;59918;51.280;7.950;2023-07-20T02:48:29;97757.69;;;15.21
72054;BMP280;59918;51.280;7.950;2023-07-20T02:50:54;97759.78;;;15.24
72054;BMP280;59918;51.280;7.950;2023-07-20T02:53:19;97762.16;;;15.26
72054;BMP280;59918;51.280;7.950;2023-07-20T02:55:50;97762.47;;;15.29
72054;BMP280;59918;51.280;7.950;2023-07-20T02:58:16;97765.84;;;15.30
72054;BMP280;59918;51.280;7.950;2023-07-20T03:00:42;97766.63;;;15.30
72054;BMP280;59918;51.280;7.950;2023-07-20T03:03:07;97760.34;;;15.26
72054;BMP280;59918;51.280;7.950;2023-07-20T03:05:36;97755.38;;;15.25
72054;BMP280;59918;51.280;7.950;2023-07-20T03:08:01;97752.72;;;15.20
72054;BMP280;59918;51.280;7.950;2023-07-20T03:10:26;97753.19;;;15.17
72054;BMP280;59918;51.280;7.950;2023-07-20T03:12:52;97758.69;;;15.20
72054;BMP280;59918;51.280;7.950;2023-07-20T03:15:17;97755.09;;;15.21
72054;BMP280;59918;51.280;7.950;2023-07-20T03:17:42;97760.81;;;15.23
72054;BMP280;59918;51.280;7.950;2023-07-20T03:20:11;97767.00;;;15.22
72054;BMP280;59918;51.280;7.950;2023-07-20T03:22:36;97763.88;;;15.20
72054;BMP280;59918;51.280;7.950;2023-07-20T03:25:01;97763.88;;;15.20
72054;BMP280;59918;51.280;7.950;2023-07-20T03:27:27;97772.97;;;15.23
72054;BMP280;59918;51.280;7.950;2023-07-20T03:29:52;97774.63;;;15.29
72054;BMP280;59918;51.280;7.950;2023-07-20T03:32:17;97774.72;;;15.33
72054;BMP280;59918;51.280;7.950;2023-07-20T03:34:42;97778.97;;;15.39
72054;BMP280;59918;51.280;7.950;2023-07-20T03:37:13;97775.13;;;15.42
72054;BMP280;59918;51.280;7.950;2023-07-20T03:39:38;97777.38;;;15.38
72054;BMP280;59918;51.280;7.950;2023-07-20T03:42:03;97785.09;;;15.33
72054;BMP280;59918;51.280;7.950;2023-07-20T03:44:29;97788.13;;;15.31
72054;BMP280;59918;51.280;7.950;2023-07-20T03:46:54;97791.09;;;15.23
72054;BMP280;59918;51.280;7.950;2023-07-20T03:49:19;97783.31;;;15.23
72054;BMP280;59918;51.280;7.950;2023-07-20T03:51:47;97797.31;;;15.22
72054;BMP280;59918;51.280;7.950;2023-07-20T03:54:12;97789.44;;;15.17
72054;BMP280;59918;51.280;7.950;2023-07-20T03:56:37;97795.16;;;15.19
72054;BMP280;59918;51.280;7.950;2023-07-20T03:59:03;97786.63;;;15.18
72054;BMP280;59918;51.280;7.950;2023-07-20T04:01:28;97789.75;;;15.20
72054;BMP280;59918;51.280;7.950;2023-07-20T04:03:53;97789.75;;;15.20
72054;BMP280;59918;51.280;7.950;2023-07-20T04:06:18;97790.53;;;15.21
72054;BMP280;59918;51.280;7.950;2023-07-20T04:08:50;97789.06;;;15.25
72054;BMP280;59918;51.280;7.950;2023-07-20T04:11:15;97782.88;;;15.26
72054;BMP280;59918;51.280;7.950;2023-07-20T04:13:40;97787.03;;;15.27
72054;BMP280;59918;51.280;7.950;2023-07-20T04:16:05;97784.53;;;15.32
72054;BMP280;59918;51.280;7.950;2023-07-20T04:18:37;97787.91;;;15.32
72054;BMP280;59918;51.280;7.950;2023-07-20T04:21:03;97782.09;;;15.25
72054;BMP280;59918;51.280;7.950;2023-07-20T04:23:28;97781.78;;;15.22
72054;BMP280;59918;51.280;7.950;2023-07-20T04:25:53;97791.56;;;15.20
72054;BMP280;59918;51.280;7.950;2023-07-20T04:28:18;97792.13;;;15.22
72054;BMP280;59918;51.280;7.950;2023-07-20T04:30:49;97791.19;;;15.28
72054;BMP280;59918;51.280;7.950;2023-07-20T04:33:15;97793.78;;;15.28
72054;BMP280;59918;51.280;7.950;2023-07-20T04:35:54;97791.53;;;15.31
72054;BMP280;59918;51.280;7.950;2023-07-20T04:38:20;97793.56;;;15.29
72054;BMP280;59918;51.280;7.950;2023-07-20T04:40:49;97797.16;;;15.28
72054;BMP280;59918;51.280;7.950;2023-07-20T04:43:15;97801.78;;;15.26
72054;BMP280;59918;51.280;7.950;2023-07-20T04:45:41;97797.31;;;15.22
72054;BMP280;59918;51.280;7.950;2023-07-20T04:48:13;97803.75;;;15.19
72054;BMP280;59918;51.280;7.950;2023-07-20T04:50:43;97799.00;;;15.16
72054;BMP280;59918;51.280;7.950;2023-07-20T04:53:17;97807.00;;;15.15
72054;BMP280;59918;51.280;7.950;2023-07-20T04:55:50;97810.41;;;15.15
72054;BMP280;59918;51.280;7.950;2023-07-20T04:58:15;97804.66;;;15.13
72054;BMP280;59918;51.280;7.950;2023-07-20T05:00:40;97804.06;;;15.11
72054;BMP280;59918;51.280;7.950;2023-07-20T05:03:06;97803.28;;;15.11
72054;BMP280;59918;51.280;7.950;2023-07-20T05:05:31;97804.31;;;15.10
72054;BMP280;59918;51.280;7.950;2023-07-20T05:08:00;97799.34;;;15.20
72054;BMP280;59918;51.280;7.950;2023-07-20T05:10:25;97800.84;;;15.32
72054;BMP280;59918;51.280;7.950;2023-07-20T05:12:50;97801.25;;;15.40
72054;BMP280;59918;51.280;7.950;2023-07-20T05:15:15;97801.91;;;15.47
72054;BMP280;59918;51.280;7.950;2023-07-20T05:17:41;97803.34;;;15.55
72054;BMP280;59918;51.280;7.950;2023-07-20T05:20:06;97801.47;;;15.67
72054;BMP280;59918;51.280;7.950;2023-07-20T05:22:32;97797.53;;;15.80
72054;BMP280;59918;51.280;7.950;2023-07-20T05:24:59;97801.00;;;15.86
72054;BMP280;59918;51.280;7.950;2023-07-20T05:27:25;97801.38;;;15.94
72054;BMP280;59918;51.280;7.950;2023-07-20T05:29:50;97789.00;;;16.01
72054;BMP280;59918;51.280;7.950;2023-07-20T05:32:15;97789.81;;;16.02
72054;BMP280;59918;51.280;7.950;2023-07-20T05:34:40;97795.78;;;16.02
72054;BMP280;59918;51.280;7.950;2023-07-20T05:37:06;97803.34;;;16.04
72054;BMP280;59918;51.280;7.950;2023-07-20T05:39:40;97801.53;;;16.04
72054;BMP280;59918;51.280;7.950;2023-07-20T05:42:05;97797.66;;;16.06
72054;BMP280;59918;51.280;7.950;2023-07-20T05:44:39;97800.34;;;16.11
72054;BMP280;59918;51.280;7.950;2023-07-20T05:47:04;97802.56;;;16.19
72054;BMP280;59918;51.280;7.950;2023-07-20T05:49:29;97806.84;;;16.30
72054;BMP280;59918;51.280;7.950;2023-07-20T05:51:59;97801.75;;;16.35
72054;BMP280;59918;51.280;7.950;2023-07-20T05:54:24;97811.63;;;16.38
72054;BMP280;59918;51.280;7.950;2023-07-20T05:56:49;97818.88;;;16.36
72054;BMP280;59918;51.280;7.950;2023-07-20T05:59:15;97813.22;;;16.39
72054;BMP280;59918;51.280;7.950;2023-07-20T06:01:40;97827.59;;;16.46
72054;BMP280;59918;51.280;7.950;2023-07-20T06:04:06;97822.25;;;16.58
72054;BMP280;59918;51.280;7.950;2023-07-20T06:06:31;97818.47;;;16.65
72054;BMP280;59918;51.280;7.950;2023-07-20T06:09:02;97819.56;;;16.69
72054;BMP280;59918;51.280;7.950;2023-07-20T06:11:27;97816.66;;;16.66
72054;BMP280;59918;51.280;7.950;2023-07-20T06:13:52;97820.19;;;16.76
72054;BMP280;59918;51.280;7.950;2023-07-20T06:16:18;97824.09;;;16.79
72054;BMP280;59918;51.280;7.950;2023-07-20T06:18:43;97831.81;;;16.74
72054;BMP280;59918;51.280;7.950;2023-07-20T06:21:11;97841.59;;;16.67
72054;BMP280;59918;51.280;7.950;2023-07-20T06:23:37;97850.91;;;16.63
72054;BMP280;59918;51.280;7.950;2023-07-20T06:26:06;97844.06;;;16.57
72054;BMP280;59918;51.280;7.950;2023-07-20T06:28:31;97851.38;;;16.60
72054;BMP280;59918;51.280;7.950;2023-07-20T06:31:03;97849.41;;;16.67
72054;BMP280;59918;51.280;7.950;2023-07-20T06:33:28;97855.88;;;16.64
72054;BMP280;59918;51.280;7.950;2023-07-20T06:35:53;97852.13;;;16.77
72054;BMP280;59918;51.280;7.950;2023-07-20T06:38:19;97851.19;;;16.87
72054;BMP280;59918;51.280;7.950;2023-07-20T06:40:51;97844.63;;;17.01
72054;BMP280;59918;51.280;7.950;2023-07-20T06:43:16;97843.47;;;17.14
72054;BMP280;59918;51.280;7.950;2023-07-20T06:45:44;97845.25;;;17.29
72054;BMP280;59918;51.280;7.950;2023-07-20T06:48:12;97858.69;;;17.48
72054;BMP280;59918;51.280;7.950;2023-07-20T06:50:37;97846.00;;;17.56
72054;BMP280;59918;51.280;7.950;2023-07-20T06:53:02;97849.28;;;17.73
72054;BMP280;59918;51.280;7.950;2023-07-20T06:55:28;97852.59;;;17.94
72054;BMP280;59918;51.280;7.950;2023-07-20T06:57:54;97846.16;;;18.02
72054;BMP280;59918;51.280;7.950;2023-07-20T07:00:19;97848.00;;;18.06
72054;BMP280;59918;51.280;7.950;2023-07-20T07:02:47;97839.28;;;18.17
72054;BMP280;59918;51.280;7.950;2023-07-20T07:05:13;97846.56;;;18.20
72054;BMP280;59918;51.280;7.950;2023-07-20T07:07:38;97844.28;;;18.28
72054;BMP280;59918;51.280;7.950;2023-07-20T07:10:04;97846.34;;;18.27
72054;BMP280;59918;51.280;7.950;2023-07-20T07:12:29;97851.78;;;18.20
72054;BMP280;59918;51.280;7.950;2023-07-20T07:14:55;97852.84;;;18.19
72054;BMP280;59918;51.280;7.950;2023-07-20T07:17:24;97849.94;;;18.21
72054;BMP280;59918;51.280;7.950;2023-07-20T07:19:49;97855.78;;;18.32
72054;BMP280;59918;51.280;7.950;2023-07-20T07:22:14;97860.78;;;18.44
72054;BMP280;59918;51.280;7.950;2023-07-20T07:24:39;97863.97;;;18.51
72054;BMP280;59918;51.280;7.950;2023-07-20T07:27:05;97865.81;;;18.55
72054;BMP280;59918;51.280;7.950;2023-07-20T07:29:30;97861.13;;;18.57
72054;BMP280;59918;51.280;7.950;2023-07-20T07:31:55;97868.69;;;18.59
72054;BMP280;59918;51.280;7.950;2023-07-20T07:34:24;97872.13;;;18.64
72054;BMP280;59918;51.280;7.950;2023-07-20T07:36:49;97870.06;;;18.66
72054;BMP280;59918;51.280;7.950;2023-07-20T07:39:14;97881.53;;;18.75
72054;BMP280;59918;51.280;7.950;2023-07-20T07:41:42;97876.91;;;18.82
72054;BMP280;59918;51.280;7.950;2023-07-20T07:44:07;97876.34;;;18.75
72054;BMP280;59918;51.280;7.950;2023-07-20T07:46:38;97884.13;;;18.70
72054;BMP280;59918;51.280;7.950;2023-07-20T07:49:04;97881.09;;;18.88
72054;BMP280;59918;51.280;7.950;2023-07-20T07:51:29;97889.81;;;19.03
72054;BMP280;59918;51.280;7.950;2023-07-20T07:53:54;97880.19;;;19.13
72054;BMP280;59918;51.280;7.950;2023-07-20T07:56:19;97883.09;;;19.17
72054;BMP280;59918;51.280;7.950;2023-07-20T07:58:49;97891.41;;;19.14
72054;BMP280;59918;51.280;7.950;2023-07-20T08:01:14;97889.06;;;19.22
72054;BMP280;59918;51.280;7.950;2023-07-20T08:03:39;97885.53;;;19.53
72054;BMP280;59918;51.280;7.950;2023-07-20T08:06:05;97889.03;;;20.17
72054;BMP280;59918;51.280;7.950;2023-07-20T08:08:31;97885.56;;;20.51
72054;BMP280;59918;51.280;7.950;2023-07-20T08:11:00;97889.25;;;20.70
72054;BMP280;59918;51.280;7.950;2023-07-20T08:13:25;97887.34;;;20.90
72054;BMP280;59918;51.280;7.950;2023-07-20T08:15:51;97893.38;;;20.86
72054;BMP280;59918;51.280;7.950;2023-07-20T08:18:16;97889.22;;;20.60
72054;BMP280;59918;51.280;7.950;2023-07-20T08:20:50;97901.25;;;20.51
72054;BMP280;59918;51.280;7.950;2023-07-20T08:23:16;97903.84;;;20.81
72054;BMP280;59918;51.280;7.950;2023-07-20T08:25:41;97899.22;;;21.41
72054;BMP280;59918;51.280;7.950;2023-07-20T08:28:07;97905.16;;;21.51
72054;BMP280;59918;51.280;7.950;2023-07-20T08:30:40;97896.56;;;21.36
72054;BMP280;59918;51.280;7.950;2023-07-20T08:33:05;97912.69;;;21.05
72054;BMP280;59918;51.280;7.950;2023-07-20T08:35:31;97905.41;;;20.77
72054;BMP280;59918;51.280;7.950;2023-07-20T08:38:02;97900.72;;;20.69
72054;BMP280;59918;51.280;7.950;2023-07-20T08:40:27;97903.28;;;20.99
72054;BMP280;59918;51.280;7.950;2023-07-20T08:42:54;97905.75;;;21.33
72054;BMP280;59918;51.280;7.950;2023-07-20T08:45:24;97903.63;;;21.45
72054;BMP280;59918;51.280;7.950;2023-07-20T08:47:50;97895.25;;;21.43
72054;BMP280;59918;51.280;7.950;2023-07-20T08:50:16;97903.88;;;21.44
72054;BMP280;59918;51.280;7.950;2023-07-20T08:52:41;97913.66;;;21.19
72054;BMP280;59918;51.280;7.950;2023-07-20T08:55:07;97919.41;;;21.21
72054;BMP280;59918;51.280;7.950;2023-07-20T08:57:39;97908.66;;;21.27
72054;BMP280;59918;51.280;7.950;2023-07-20T09:00:06;97905.44;;;21.50
72054;BMP280;59918;51.280;7.950;2023-07-20T09:02:38;97905.63;;;21.63
72054;BMP280;59918;51.280;7.950;2023-07-20T09:05:04;97908.47;;;21.71
72054;BMP280;59918;51.280;7.950;2023-07-20T09:07:29;97908.69;;;21.75
72054;BMP280;59918;51.280;7.950;2023-07-20T09:10:02;97896.97;;;22.00
72054;BMP280;59918;51.280;7.950;2023-07-20T09:12:28;97900.53;;;22.19
72054;BMP280;59918;51.280;7.950;2023-07-20T09:14:57;97904.25;;;22.08
72054;BMP280;59918;51.280;7.950;2023-07-20T09:17:26;97902.41;;;21.76
72054;BMP280;59918;51.280;7.950;2023-07-20T09:19:51;97903.28;;;21.99
72054;BMP280;59918;51.280;7.950;2023-07-20T09:22:16;97898.75;;;22.10
72054;BMP280;59918;51.280;7.950;2023-07-20T09:24:44;97902.91;;;22.16
72054;BMP280;59918;51.280;7.950;2023-07-20T09:27:12;97896.97;;;22.38
72054;BMP280;59918;51.280;7.950;2023-07-20T09:29:51;97895.03;;;23.23
72054;BMP280;59918;51.280;7.950;2023-07-20T09:32:26;97889.75;;;24.01
72054;BMP280;59918;51.280;7.950;2023-07-20T09:34:51;97887.00;;;23.93
72054;BMP280;59918;51.280;7.950;2023-07-20T09:37:26;97885.56;;;23.45
72054;BMP280;59918;51.280;7.950;2023-07-20T09:39:52;97885.13;;;23.39
72054;BMP280;59918;51.280;7.950;2023-07-20T09:42:17;97884.59;;;23.42
72054;BMP280;59918;51.280;7.950;2023-07-20T09:44:48;97889.97;;;23.86
72054;BMP280;59918;51.280;7.950;2023-07-20T09:47:24;97890.22;;;24.53
72054;BMP280;59918;51.280;7.950;2023-07-20T09:49:49;97881.13;;;25.04
72054;BMP280;59918;51.280;7.950;2023-07-20T09:52:15;97891.84;;;25.07
72054;BMP280;59918;51.280;7.950;2023-07-20T09:54:44;97891.25;;;24.84
72054;BMP280;59918;51.280;7.950;2023-07-20T09:57:13;97891.38;;;24.34
72054;BMP280;59918;51.280;7.950;2023-07-20T09:59:38;97899.38;;;23.74
72054;BMP280;59918;51.280;7.950;2023-07-20T10:02:30;97899.00;;;23.21
72054;BMP280;59918;51.280;7.950;2023-07-20T10:05:01;97899.13;;;22.60
72054;BMP280;59918;51.280;7.950;2023-07-20T10:07:27;97906.63;;;22.15
72054;BMP280;59918;51.280;7.950;2023-07-20T10:09:55;97911.28;;;21.80
72054;BMP280;59918;51.280;7.950;2023-07-20T10:12:25;97921.88;;;21.60
72054;BMP280;59918;51.280;7.950;2023-07-20T10:17:43;97928.50;;;21.28
72054;BMP280;59918;51.280;7.950;2023-07-20T10:20:12;97925.97;;;21.13
72054;BMP280;59918;51.280;7.950;2023-07-20T10:22:40;97923.34;;;21.13
72054;BMP280;59918;51.280;7.950;2023-07-20T10:25:06;97918.41;;;22.07
72054;BMP280;59918;51.280;7.950;2023-07-20T10:27:31;97907.25;;;23.33
72054;BMP280;59918;51.280;7.950;2023-07-20T10:30:00;97896.53;;;24.39
72054;BMP280;59918;51.280;7.950;2023-07-20T10:32:26;97888.47;;;25.68
72054;BMP280;59918;51.280;7.950;2023-07-20T10:34:52;97882.50;;;26.63
72054;BMP280;59918;51.280;7.950;2023-07-20T10:38:01;97878.94;;;27.53
72054;BMP280;59918;51.280;7.950;2023-07-20T10:40:39;97877.53;;;28.31
72054;BMP280;59918;51.280;7.950;2023-07-20T10:43:08;97876.38;;;29.02
72054;BMP280;59918;51.280;7.950;2023-07-20T10:45:42;97866.06;;;29.58
72054;BMP280;59918;51.280;7.950;2023-07-20T10:48:36;97872.09;;;28.81
72054;BMP280;59918;51.280;7.950;2023-07-20T10:51:24;97876.00;;;28.05
72054;BMP280;59918;51.280;7.950;2023-07-20T10:53:49;97877.00;;;27.20
72054;BMP280;59918;51.280;7.950;2023-07-20T10:56:19;97873.50;;;28.25
72054;BMP280;59918;51.280;7.950;2023-07-20T10:58:48;97871.66;;;27.67
72054;BMP280;59918;51.280;7.950;2023-07-20T11:01:17;97867.00;;;28.76
72054;BMP280;59918;51.280;7.950;2023-07-20T11:03:43;97866.75;;;29.27
72054;BMP280;59918;51.280;7.950;2023-07-20T11:08:55;97846.81;;;32.27
72054;BMP280;59918;51.280;7.950;2023-07-20T11:11:29;97849.56;;;33.37
72054;BMP280;59918;51.280;7.950;2023-07-20T11:14:04;97841.25;;;34.14
72054;BMP280;59918;51.280;7.950;2023-07-20T11:19:03;97826.53;;;35.12
72054;BMP280;59918;51.280;7.950;2023-07-20T11:21:35;97820.25;;;35.52
72054;BMP280;59918;51.280;7.950;2023-07-20T11:24:03;97824.16;;;35.29
72054;BMP280;59918;51.280;7.950;2023-07-20T11:26:29;97835.84;;;33.73
72054;BMP280;59918;51.280;7.950;2023-07-20T11:28:54;97841.63;;;31.91
72054;BMP280;59918;51.280;7.950;2023-07-20T11:31:19;97842.38;;;32.03
72054;BMP280;59918;51.280;7.950;2023-07-20T11:33:50;97828.44;;;33.82
72054;BMP280;59918;51.280;7.950;2023-07-20T11:36:15;97811.44;;;35.23
72054;BMP280;59918;51.280;7.950;2023-07-20T11:38:41;97816.50;;;35.86
72054;BMP280;59918;51.280;7.950;2023-07-20T11:41:07;97810.72;;;36.56
72054;BMP280;59918;51.280;7.950;2023-07-20T11:43:36;97799.03;;;37.31
72054;BMP280;59918;51.280;7.950;2023-07-20T11:46:01;97804.31;;;37.91
72054;BMP280;59918;51.280;7.950;2023-07-20T11:48:27;97795.94;;;38.13
72054;BMP280;59918;51.280;7.950;2023-07-20T11:50:52;97791.00;;;38.67
72054;BMP280;59918;51.280;7.950;2023-07-20T11:53:18;97803.25;;;39.13
72054;BMP280;59918;51.280;7.950;2023-07-20T11:55:50;97785.13;;;39.51
72054;BMP280;59918;51.280;7.950;2023-07-20T11:58:15;97786.88;;;40.53
72054;BMP280;59918;51.280;7.950;2023-07-20T12:00:50;97785.53;;;40.21
72054;BMP280;59918;51.280;7.950;2023-07-20T12:03:16;97782.00;;;40.27
72054;BMP280;59918;51.280;7.950;2023-07-20T12:05:42;97784.50;;;38.61
72054;BMP280;59918;51.280;7.950;2023-07-20T12:08:14;97788.69;;;36.69
72054;BMP280;59918;51.280;7.950;2023-07-20T12:10:40;97805.78;;;34.32
72054;BMP280;59918;51.280;7.950;2023-07-20T12:13:05;97803.53;;;33.40
72054;BMP280;59918;51.280;7.950;2023-07-20T12:15:30;97797.16;;;32.19
72054;BMP280;59918;51.280;7.950;2023-07-20T12:18:00;97807.47;;;31.27
72054;BMP280;59918;51.280;7.950;2023-07-20T12:20:26;97807.25;;;30.61
72054;BMP280;59918;51.280;7.950;2023-07-20T12:22:52;97809.19;;;29.96
72054;BMP280;59918;51.280;7.950;2023-07-20T12:25:17;97808.00;;;29.53
72054;BMP280;59918;51.280;7.950;2023-07-20T12:27:50;97806.28;;;29.37
72054;BMP280;59918;51.280;7.950;2023-07-20T12:30:15;97808.59;;;29.59
72054;BMP280;59918;51.280;7.950;2023-07-20T12:32:43;97800.03;;;31.71
72054;BMP280;59918;51.280;7.950;2023-07-20T12:35:15;97783.91;;;33.67
72054;BMP280;59918;51.280;7.950;2023-07-20T12:37:40;97775.31;;;35.94
72054;BMP280;59918;51.280;7.950;2023-07-20T12:40:06;97757.06;;;37.73
72054;BMP280;59918;51.280;7.950;2023-07-20T12:42:31;97760.66;;;36.60
72054;BMP280;59918;51.280;7.950;2023-07-20T12:45:00;97779.28;;;34.01
72054;BMP280;59918;51.280;7.950;2023-07-20T12:47:25;97778.31;;;32.24
72054;BMP280;59918;51.280;7.950;2023-07-20T12:49:50;97787.59;;;31.09
72054;BMP280;59918;51.280;7.950;2023-07-20T12:52:15;97779.91;;;30.25
72054;BMP280;59918;51.280;7.950;2023-07-20T12:54:41;97788.75;;;29.65
72054;BMP280;59918;51.280;7.950;2023-07-20T12:57:06;97783.66;;;29.19
72054;BMP280;59918;51.280;7.950;2023-07-20T12:59:40;97788.78;;;28.87
72054;BMP280;59918;51.280;7.950;2023-07-20T13:02:05;97784.06;;;28.72
72054;BMP280;59918;51.280;7.950;2023-07-20T13:04:31;97782.53;;;29.61
72054;BMP280;59918;51.280;7.950;2023-07-20T13:07:02;97772.94;;;31.93
72054;BMP280;59918;51.280;7.950;2023-07-20T13:09:27;97763.31;;;33.45
72054;BMP280;59918;51.280;7.950;2023-07-20T13:11:52;97753.72;;;35.47
72054;BMP280;59918;51.280;7.950;2023-07-20T13:14:18;97754.28;;;35.63
72054;BMP280;59918;51.280;7.950;2023-07-20T13:16:52;97748.25;;;34.34
72054;BMP280;59918;51.280;7.950;2023-07-20T13:19:17;97760.66;;;32.46
72054;BMP280;59918;51.280;7.950;2023-07-20T13:21:42;97775.81;;;31.22
72054;BMP280;59918;51.280;7.950;2023-07-20T13:24:14;97766.56;;;30.33
72054;BMP280;59918;51.280;7.950;2023-07-20T13:26:39;97784.66;;;29.67
72054;BMP280;59918;51.280;7.950;2023-07-20T13:29:04;97787.88;;;29.12
72054;BMP280;59918;51.280;7.950;2023-07-20T13:31:30;97785.53;;;28.53
72054;BMP280;59918;51.280;7.950;2023-07-20T13:33:55;97784.97;;;28.31
72054;BMP280;59918;51.280;7.950;2023-07-20T13:36:26;97783.00;;;28.20
72054;BMP280;59918;51.280;7.950;2023-07-20T13:38:51;97773.97;;;28.21
72054;BMP280;59918;51.280;7.950;2023-07-20T13:41:18;97778.09;;;28.38
72054;BMP280;59918;51.280;7.950;2023-07-20T13:43:43;97784.84;;;28.73
72054;BMP280;59918;51.280;7.950;2023-07-20T13:46:15;97771.19;;;29.20
72054;BMP280;59918;51.280;7.950;2023-07-20T13:48:40;97769.16;;;29.17
72054;BMP280;59918;51.280;7.950;2023-07-20T13:51:05;97776.38;;;28.79
72054;BMP280;59918;51.280;7.950;2023-07-20T13:53:30;97772.72;;;28.27
72054;BMP280;59918;51.280;7.950;2023-07-20T13:55:56;97761.94;;;27.78
72054;BMP280;59918;51.280;7.950;2023-07-20T13:58:27;97765.34;;;27.36
72054;BMP280;59918;51.280;7.950;2023-07-20T14:00:52;97777.44;;;27.04
72054;BMP280;59918;51.280;7.950;2023-07-20T14:03:17;97776.72;;;26.65
72054;BMP280;59918;51.280;7.950;2023-07-20T14:05:42;97769.22;;;26.58
72054;BMP280;59918;51.280;7.950;2023-07-20T14:08:15;97767.94;;;26.86
72054;BMP280;59918;51.280;7.950;2023-07-20T14:10:40;97755.78;;;28.27
72054;BMP280;59918;51.280;7.950;2023-07-20T14:13:05;97751.47;;;30.13
72054;BMP280;59918;51.280;7.950;2023-07-20T14:15:31;97738.84;;;31.29
72054;BMP280;59918;51.280;7.950;2023-07-20T14:18:02;97738.56;;;31.07
72054;BMP280;59918;51.280;7.950;2023-07-20T14:20:27;97739.38;;;30.48
72054;BMP280;59918;51.280;7.950;2023-07-20T14:22:52;97736.31;;;31.21
72054;BMP280;59918;51.280;7.950;2023-07-20T14:25:18;97741.56;;;30.70